ADDS METAR Data INFO
IDs: Format: Raw Decoded Include TAF

Data at: 1152 UTC 25 Jun 2018

KRWL 251053Z AUTO 00000KT 10SM CLR 04/03 A3020 RMK AO2 SLP171 T00440028
KRWL 250953Z AUTO 05003KT 10SM CLR 06/04 A3020 RMK AO2 SLP167 T00560039
KRWL 250853Z AUTO 00000KT 10SM CLR 06/03 A3020 RMK AO2 SLP168 T00560033 56007
KRWL 250753Z AUTO 05003KT 10SM CLR 06/03 A3021 RMK AO2 SLP168 T00610033
KRWL 250653Z AUTO 00000KT 10SM SCT090 07/03 A3021 RMK AO2 SLP172 T00670033 401940067
KRWL 250553Z AUTO 00000KT 10SM CLR 08/04 A3023 RMK AO2 SLP174 T00780039 10194 20072 50003
KRWL 250453Z AUTO 19003KT 10SM CLR 09/04 A3024 RMK AO2 SLP177 T00940044
KRWL 250353Z AUTO 07005KT 10SM CLR 11/04 A3024 RMK AO2 SLP178 T01060044
KRWL 250253Z AUTO 10006KT 10SM CLR 13/05 A3022 RMK AO2 SLP171 T01330050 53012
KRWL 250153Z AUTO 04011G19KT 010V100 10SM CLR 18/02 A3020 RMK AO2 SLP154 T01780022
KRWL 250053Z AUTO 36008KT 10SM CLR 19/03 A3019 RMK AO2 SLP148 T01940028
KRWL 242353Z AUTO 10SM FEW070 18/03 A3018 RMK AO2 SLP151 T01830028 10194 20156 58008
KRWL 242253Z AUTO 11003KT 10SM FEW080 17/05 A3019 RMK AO2 SLP156 T01720050
KRWL 242153Z AUTO 06014G19KT 10SM FEW060 BKN070 BKN090 17/06 A3020 RMK AO2 SLP158 T01720061
KRWL 242053Z AUTO 36008KT 310V030 10SM SCT060 BKN090 17/04 A3021 RMK AO2 SLP163 T01720039 51003
KRWL 241953Z AUTO 02016KT 10SM SCT050 BKN060 BKN090 18/05 A3021 RMK AO2 SLP157 T01780050
KRWL 241853Z AUTO 35014KT 10SM SCT095 17/04 A3021 RMK AO2 SLP163 T01670044
KRWL 241753Z AUTO 01012G18KT 10SM FEW041 16/04 A3020 RMK AO2 SLP157 T01610044 10172 20072 51006
KRWL 241653Z AUTO 03009KT 10SM FEW090 14/06 A3019 RMK AO2 SLP158 T01440061
KRWL 241553Z AUTO VRB03KT 10SM CLR 13/06 A3018 RMK AO2 SLP153 T01330061
KRWL 241453Z AUTO 01005KT 10SM SCT020 OVC085 11/06 A3017 RMK AO2 SLP151 T01110061 51018
KRWL 241353Z AUTO 35011KT 10SM FEW040 BKN095 11/07 A3015 RMK AO2 SLP144 T01060067
KRWL 241253Z AUTO 33010KT 10SM CLR 09/06 A3013 RMK AO2 SLP142 T00890061
KRWL 241153Z AUTO 33008KT 10SM SCT095 08/06 A3011 RMK AO2 SLP139 70007 T00780061 10100 20078 51016
KRWL 241053Z AUTO 32007KT 10SM BKN060 OVC075 09/07 A3009 RMK AO2 SLP114 T00940072
KRWL 240953Z AUTO 26003KT 10SM OVC050 09/07 A3007 RMK AO2 SLP105 T00940072
KRWL 240853Z AUTO 31005KT 10SM BKN100 08/07 A3005 RMK AO2 SLP090 T00830067 51007
KRWL 240753Z AUTO 01010KT 10SM CLR 09/07 A3004 RMK AO2 SLP080 T00940072
KRWL 240653Z AUTO 35003KT 10SM CLR 08/07 A3004 RMK AO2 SLP087 T00830072 402720061
KRWL 240553Z AUTO 36010KT 10SM SCT100 10/08 A3002 RMK AO2 SLP081 60006 T01000083 10167 20100 51010
KRWL 240453Z AUTO 04013KT 10SM CLR 11/09 A3002 RMK AO2 SLP080 T01110089
KRWL 240353Z AUTO 01005KT 10SM FEW065 OVC090 12/09 A3002 RMK AO2 RAE43 SLP078 P0001 T01220089
KRWL 240253Z AUTO 18005G16KT 10SM -RA FEW049 SCT060 OVC075 14/07 A2999 RMK AO2 LTG DSNT SE RAB0159E22B27 TSE11 SLP068 P0002 60005 T01390067 53007
KRWL 240241Z AUTO VRB04KT 10SM -RA FEW060 BKN075 OVC100 13/08 A3000 RMK AO2 LTG DSNT SE AND S RAB0159E22B27 TSE11 P0002 T01330083
KRWL 240224Z AUTO 30013G20KT 10SM VCTS FEW055 SCT070 OVC100 14/08 A2998 RMK AO2 LTG DSNT ALQDS RAB0159E22 TSE11 P0002 T01390078
KRWL 240217Z AUTO 28009G20KT 10SM -RA FEW050 BKN080 OVC110 13/08 A2998 RMK AO2 LTG DSNT ALQDS RAB0159 TSE11 P0002 T01330083
KRWL 240153Z AUTO 31014KT 10SM TS BKN085 OVC110 14/08 A2996 RMK AO2 LTG DSNT N AND S AND SW RAE11 TSE10B52 SLP064 P0000 T01440078
KRWL 240128Z AUTO VRB06KT 10SM VCTS FEW080 BKN100 OVC120 14/11 A2994 RMK AO2 LTG DSNT SW-NW RAE11 TSE10 P0000 T01390106
KRWL 240116Z AUTO 16007KT 10SM FEW055 BKN100 OVC110 14/11 A2995 RMK AO2 LTG DSNT SW AND W RAE11 TSE10 P0000 T01390106
KRWL 240053Z AUTO 26005KT 7SM -TSRA FEW055 BKN080 OVC100 14/10 A2997 RMK AO2 LTG DSNT W TSE10B44 SLP079 P0003 T01390100
KRWL 240050Z AUTO VRB03KT 7SM -TSRA FEW055 SCT080 OVC100 14/11 A2996 RMK AO2 LTG DSNT W TSE10B44 P0003
KRWL 240016Z AUTO 9SM VCTS -RA SCT060 BKN070 OVC100 15/08 A2995 RMK AO2 LTG DSNT ALQDS TSE10 P0001 T01500078
KRWL 232353Z AUTO 08012KT 8SM -TSRA BKN065 OVC080 13/09 A2995 RMK AO2 LTG DSNT SW AND W RAB12 TSB24E39B45 SLP087 P0001 60001 T01330094 10272 20133 50007